sensor_id;sensor_type;location;lat;lon;timestamp;pressure;altitude;pressure_sealevel;temperature;humidity
55032;BME280;40928;51.076;7.950;2022-12-04T00:00:44;96980.66;;;-0.49;100.00
55032;BME280;40928;51.076;7.950;2022-12-04T00:03:10;96977.66;;;-0.46;100.00
55032;BME280;40928;51.076;7.950;2022-12-04T00:05:35;96982.91;;;-0.46;100.00
55032;BME280;40928;51.076;7.950;2022-12-04T00:08:01;96976.22;;;-0.48;100.00
55032;BME280;40928;51.076;7.950;2022-12-04T00:10:26;96971.63;;;-0.54;100.00
55032;BME280;40928;51.076;7.950;2022-12-04T00:12:52;96974.75;;;-0.59;100.00
55032;BME280;40928;51.076;7.950;2022-12-04T00:15:17;96981.34;;;-0.63;100.00
55032;BME280;40928;51.076;7.950;2022-12-04T00:17:46;96980.53;;;-0.64;100.00
55032;BME280;40928;51.076;7.950;2022-12-04T00:20:12;96980.53;;;-0.64;100.00
55032;BME280;40928;51.076;7.950;2022-12-04T00:22:39;96976.59;;;-0.68;100.00
55032;BME280;40928;51.076;7.950;2022-12-04T00:25:04;96973.81;;;-0.74;100.00
55032;BME280;40928;51.076;7.950;2022-12-04T00:27:30;96977.94;;;-0.72;100.00
55032;BME280;40928;51.076;7.950;2022-12-04T00:29:55;96966.47;;;-0.79;100.00
55032;BME280;40928;51.076;7.950;2022-12-04T00:32:21;96961.88;;;-0.77;100.00
55032;BME280;40928;51.076;7.950;2022-12-04T00:34:46;96968.91;;;-0.78;100.00
55032;BME280;40928;51.076;7.950;2022-12-04T00:37:12;96961.03;;;-0.69;100.00
55032;BME280;40928;51.076;7.950;2022-12-04T00:39:37;96962.50;;;-0.67;100.00
55032;BME280;40928;51.076;7.950;2022-12-04T00:42:03;96955.78;;;-0.69;100.00
55032;BME280;40928;51.076;7.950;2022-12-04T00:44:28;96954.00;;;-0.77;100.00
55032;BME280;40928;51.076;7.950;2022-12-04T00:46:54;96962.06;;;-0.79;100.00
55032;BME280;40928;51.076;7.950;2022-12-04T00:49:19;96961.03;;;-0.78;100.00
55032;BME280;40928;51.076;7.950;2022-12-04T00:51:45;96949.75;;;-0.78;100.00
55032;BME280;40928;51.076;7.950;2022-12-04T00:54:10;96945.81;;;-0.74;100.00
55032;BME280;40928;51.076;7.950;2022-12-04T00:56:36;96953.97;;;-0.69;100.00
55032;BME280;40928;51.076;7.950;2022-12-04T00:59:01;96955.78;;;-0.69;100.00
55032;BME280;40928;51.076;7.950;2022-12-04T01:01:28;96952.53;;;-0.71;100.00
55032;BME280;40928;51.076;7.950;2022-12-04T01:03:54;96949.56;;;-0.77;100.00
55032;BME280;40928;51.076;7.950;2022-12-04T01:06:26;96952.41;;;-0.86;100.00
55032;BME280;40928;51.076;7.950;2022-12-04T01:08:53;96956.50;;;-0.84;100.00
55032;BME280;40928;51.076;7.950;2022-12-04T01:11:21;96956.81;;;-0.87;100.00
55032;BME280;40928;51.076;7.950;2022-12-04T01:13:47;96950.09;;;-0.81;100.00
55032;BME280;40928;51.076;7.950;2022-12-04T01:16:24;96944.84;;;-0.81;100.00
55032;BME280;40928;51.076;7.950;2022-12-04T01:18:50;96955.81;;;-0.78;100.00
55032;BME280;40928;51.076;7.950;2022-12-04T01:21:17;96955.47;;;-0.74;100.00
55032;BME280;40928;51.076;7.950;2022-12-04T01:23:42;96957.94;;;-0.73;100.00
55032;BME280;40928;51.076;7.950;2022-12-04T01:26:08;96956.78;;;-0.70;100.00
55032;BME280;40928;51.076;7.950;2022-12-04T01:28:35;96956.44;;;-0.67;100.00
55032;BME280;40928;51.076;7.950;2022-12-04T01:31:10;96961.38;;;-0.72;99.91
55032;BME280;40928;51.076;7.950;2022-12-04T01:33:38;96957.63;;;-0.78;100.00
55032;BME280;40928;51.076;7.950;2022-12-04T01:36:06;96957.81;;;-0.88;100.00
55032;BME280;40928;51.076;7.950;2022-12-04T01:38:33;96956.16;;;-0.89;100.00
55032;BME280;40928;51.076;7.950;2022-12-04T01:40:59;96959.13;;;-0.84;100.00
55032;BME280;40928;51.076;7.950;2022-12-04T01:43:26;96948.31;;;-0.89;100.00
55032;BME280;40928;51.076;7.950;2022-12-04T01:45:54;96944.38;;;-0.93;100.00
55032;BME280;40928;51.076;7.950;2022-12-04T01:48:29;96942.75;;;-0.94;100.00
55032;BME280;40928;51.076;7.950;2022-12-04T01:53:29;96951.44;;;-0.94;100.00
55032;BME280;40928;51.076;7.950;2022-12-04T01:55:55;96943.75;;;-1.03;100.00
55032;BME280;40928;51.076;7.950;2022-12-04T01:58:27;96943.09;;;-1.05;100.00
55032;BME280;40928;51.076;7.950;2022-12-04T02:00:55;96942.75;;;-1.02;100.00
55032;BME280;40928;51.076;7.950;2022-12-04T02:03:23;96948.84;;;-1.02;100.00
55032;BME280;40928;51.076;7.950;2022-12-04T02:05:48;96930.97;;;-1.07;100.00
55032;BME280;40928;51.076;7.950;2022-12-04T02:08:14;96933.59;;;-1.07;100.00
55032;BME280;40928;51.076;7.950;2022-12-04T02:13:19;96920.66;;;-1.16;100.00
55032;BME280;40928;51.076;7.950;2022-12-04T02:15:59;96929.34;;;-1.08;100.00
55032;BME280;40928;51.076;7.950;2022-12-04T02:18:40;96936.88;;;-1.04;100.00
55032;BME280;40928;51.076;7.950;2022-12-04T02:29:28;96927.22;;;-1.12;100.00
55032;BME280;40928;51.076;7.950;2022-12-04T02:32:06;96923.94;;;-1.14;100.00
55032;BME280;40928;51.076;7.950;2022-12-04T02:37:36;96913.66;;;-1.16;100.00
55032;BME280;40928;51.076;7.950;2022-12-04T02:40:09;96918.56;;;-1.13;100.00
55032;BME280;40928;51.076;7.950;2022-12-04T02:42:42;96924.13;;;-1.16;100.00
55032;BME280;40928;51.076;7.950;2022-12-04T02:45:14;96920.38;;;-1.21;100.00
55032;BME280;40928;51.076;7.950;2022-12-04T02:47:43;96926.09;;;-1.18;100.00
55032;BME280;40928;51.076;7.950;2022-12-04T02:50:13;96931.34;;;-1.18;100.00
55032;BME280;40928;51.076;7.950;2022-12-04T02:52:46;96914.81;;;-1.18;100.00
55032;BME280;40928;51.076;7.950;2022-12-04T02:55:18;96918.56;;;-1.13;100.00
55032;BME280;40928;51.076;7.950;2022-12-04T02:57:49;96921.00;;;-1.11;100.00
55032;BME280;40928;51.076;7.950;2022-12-04T03:00:15;96929.34;;;-1.08;100.00
55032;BME280;40928;51.076;7.950;2022-12-04T03:02:53;96930.34;;;-1.17;100.00
55032;BME280;40928;51.076;7.950;2022-12-04T03:05:25;96931.00;;;-1.15;100.00
55032;BME280;40928;51.076;7.950;2022-12-04T03:07:56;96934.94;;;-1.19;100.00
55032;BME280;40928;51.076;7.950;2022-12-04T03:10:33;96942.78;;;-1.19;100.00
55032;BME280;40928;51.076;7.950;2022-12-04T03:13:11;96945.75;;;-1.22;100.00
55032;BME280;40928;51.076;7.950;2022-12-04T03:18:42;96938.22;;;-1.33;100.00
55032;BME280;40928;51.076;7.950;2022-12-04T03:21:15;96933.16;;;-1.35;100.00
55032;BME280;40928;51.076;7.950;2022-12-04T03:23:46;96941.00;;;-1.43;100.00
55032;BME280;40928;51.076;7.950;2022-12-04T03:27:30;96935.28;;;-1.55;100.00
55032;BME280;40928;51.076;7.950;2022-12-04T03:29:21;96938.06;;;-1.57;100.00
55032;BME280;40928;51.076;7.950;2022-12-04T03:31:50;96946.44;;;-1.61;100.00
55032;BME280;40928;51.076;7.950;2022-12-04T03:34:34;96949.84;;;-1.61;100.00
55032;BME280;40928;51.076;7.950;2022-12-04T03:37:09;96945.59;;;-1.62;100.00
55032;BME280;40928;51.076;7.950;2022-12-04T03:40:05;96939.56;;;-1.62;100.00
55032;BME280;40928;51.076;7.950;2022-12-04T03:46:29;96946.59;;;-1.55;100.00
55032;BME280;40928;51.076;7.950;2022-12-04T03:49:30;96946.75;;;-1.48;100.00
55032;BME280;40928;51.076;7.950;2022-12-04T03:52:01;96942.19;;;-1.46;100.00
55032;BME280;40928;51.076;7.950;2022-12-04T03:54:31;96948.88;;;-1.43;100.00
55032;BME280;40928;51.076;7.950;2022-12-04T03:57:12;96954.94;;;-1.43;100.00
55032;BME280;40928;51.076;7.950;2022-12-04T04:00:06;96944.13;;;-1.40;100.00
55032;BME280;40928;51.076;7.950;2022-12-04T04:02:38;96947.41;;;-1.38;100.00
55032;BME280;40928;51.076;7.950;2022-12-04T04:05:07;96939.06;;;-1.33;100.00
55032;BME280;40928;51.076;7.950;2022-12-04T04:07:46;96942.31;;;-1.31;100.00
55032;BME280;40928;51.076;7.950;2022-12-04T04:10:15;96934.63;;;-1.32;100.00
55032;BME280;40928;51.076;7.950;2022-12-04T04:12:54;96937.06;;;-1.31;100.00
55032;BME280;40928;51.076;7.950;2022-12-04T04:15:44;96932.81;;;-1.32;100.00
55032;BME280;40928;51.076;7.950;2022-12-04T04:18:31;96937.44;;;-1.34;100.00
55032;BME280;40928;51.076;7.950;2022-12-04T04:21:22;96933.81;;;-1.33;100.00
55032;BME280;40928;51.076;7.950;2022-12-04T04:24:27;96935.94;;;-1.36;100.00
55032;BME280;40928;51.076;7.950;2022-12-04T04:26:57;96932.34;;;-1.35;100.00
55032;BME280;40928;51.076;7.950;2022-12-04T04:29:24;96937.44;;;-1.34;100.00
55032;BME280;40928;51.076;7.950;2022-12-04T04:32:02;96930.38;;;-1.33;100.00
55032;BME280;40928;51.076;7.950;2022-12-04T04:34:49;96922.34;;;-1.32;100.00
55032;BME280;40928;51.076;7.950;2022-12-04T04:40:21;96912.38;;;-1.28;100.00
55032;BME280;40928;51.076;7.950;2022-12-04T04:42:49;96918.88;;;-1.24;100.00
55032;BME280;40928;51.076;7.950;2022-12-04T04:45:26;96916.44;;;-1.26;100.00
55032;BME280;40928;51.076;7.950;2022-12-04T04:48:05;96920.88;;;-1.34;100.00
55032;BME280;40928;51.076;7.950;2022-12-04T04:50:34;96909.28;;;-1.48;100.00
55032;BME280;40928;51.076;7.950;2022-12-04T04:53:05;96918.75;;;-1.56;100.00
55032;BME280;40928;51.076;7.950;2022-12-04T04:55:33;96922.38;;;-1.57;100.00
55032;BME280;40928;51.076;7.950;2022-12-04T04:58:14;96918.75;;;-1.56;100.00
55032;BME280;40928;51.076;7.950;2022-12-04T05:00:44;96909.94;;;-1.55;100.00
55032;BME280;40928;51.076;7.950;2022-12-04T05:03:12;96917.47;;;-1.51;100.00
55032;BME280;40928;51.076;7.950;2022-12-04T05:05:38;96922.19;;;-1.55;100.00
55032;BME280;40928;51.076;7.950;2022-12-04T05:08:04;96917.78;;;-1.55;100.00
55032;BME280;40928;51.076;7.950;2022-12-04T05:10:29;96906.66;;;-1.57;100.00
55032;BME280;40928;51.076;7.950;2022-12-04T05:12:55;96910.09;;;-1.56;100.00
55032;BME280;40928;51.076;7.950;2022-12-04T05:15:20;96918.13;;;-1.49;100.00
55032;BME280;40928;51.076;7.950;2022-12-04T05:17:46;96923.69;;;-1.52;100.00
55032;BME280;40928;51.076;7.950;2022-12-04T05:20:11;96917.75;;;-1.46;100.00
55032;BME280;40928;51.076;7.950;2022-12-04T05:22:37;96920.56;;;-1.48;100.00
55032;BME280;40928;51.076;7.950;2022-12-04T05:25:03;96923.00;;;-1.46;100.00
55032;BME280;40928;51.076;7.950;2022-12-04T05:27:30;96919.41;;;-1.45;100.00
55032;BME280;40928;51.076;7.950;2022-12-04T05:29:57;96913.53;;;-1.39;100.00
55032;BME280;40928;51.076;7.950;2022-12-04T05:32:24;96918.75;;;-1.39;100.00
55032;BME280;40928;51.076;7.950;2022-12-04T05:34:52;96919.22;;;-1.35;100.00
55032;BME280;40928;51.076;7.950;2022-12-04T05:37:19;96912.22;;;-1.35;100.00
55032;BME280;40928;51.076;7.950;2022-12-04T05:39:45;96914.00;;;-1.35;100.00
55032;BME280;40928;51.076;7.950;2022-12-04T05:42:11;96909.75;;;-1.36;100.00
55032;BME280;40928;51.076;7.950;2022-12-04T05:44:37;96907.94;;;-1.36;100.00
55032;BME280;40928;51.076;7.950;2022-12-04T05:47:02;96900.25;;;-1.38;100.00
55032;BME280;40928;51.076;7.950;2022-12-04T05:49:29;96903.19;;;-1.32;100.00
55032;BME280;40928;51.076;7.950;2022-12-04T05:51:55;96908.44;;;-1.32;100.00
55032;BME280;40928;51.076;7.950;2022-12-04T05:54:20;96915.50;;;-1.33;100.00
55032;BME280;40928;51.076;7.950;2022-12-04T05:56:46;96905.16;;;-1.34;100.00
55032;BME280;40928;51.076;7.950;2022-12-04T05:59:12;96903.38;;;-1.34;100.00
55032;BME280;40928;51.076;7.950;2022-12-04T06:01:38;96901.56;;;-1.33;100.00
55032;BME280;40928;51.076;7.950;2022-12-04T06:04:04;96903.38;;;-1.42;100.00
55032;BME280;40928;51.076;7.950;2022-12-04T06:06:29;96909.59;;;-1.43;100.00
55032;BME280;40928;51.076;7.950;2022-12-04T06:08:57;96909.75;;;-1.45;100.00
55032;BME280;40928;51.076;7.950;2022-12-04T06:11:34;96912.38;;;-1.45;100.00
55032;BME280;40928;51.076;7.950;2022-12-04T06:14:02;96911.88;;;-1.40;100.00
55032;BME280;40928;51.076;7.950;2022-12-04T06:16:30;96909.09;;;-1.39;100.00
55032;BME280;40928;51.076;7.950;2022-12-04T06:18:59;96911.22;;;-1.34;100.00
55032;BME280;40928;51.076;7.950;2022-12-04T06:21:27;96909.91;;;-1.30;100.00
55032;BME280;40928;51.076;7.950;2022-12-04T06:23:53;96916.25;;;-1.24;100.00
55032;BME280;40928;51.076;7.950;2022-12-04T06:26:20;96914.97;;;-1.28;100.00
55032;BME280;40928;51.076;7.950;2022-12-04T06:28:46;96920.88;;;-1.34;100.00
55032;BME280;40928;51.076;7.950;2022-12-04T06:31:15;96916.13;;;-1.39;100.00
55032;BME280;40928;51.076;7.950;2022-12-04T06:33:41;96928.56;;;-1.41;100.00
55032;BME280;40928;51.076;7.950;2022-12-04T06:36:11;96924.00;;;-1.39;100.00
55032;BME280;40928;51.076;7.950;2022-12-04T06:38:38;96921.19;;;-1.38;100.00
55032;BME280;40928;51.076;7.950;2022-12-04T06:41:10;96929.38;;;-1.32;100.00
55032;BME280;40928;51.076;7.950;2022-12-04T06:43:36;96923.34;;;-1.33;100.00
55032;BME280;40928;51.076;7.950;2022-12-04T06:46:07;96918.72;;;-1.31;100.00
55032;BME280;40928;51.076;7.950;2022-12-04T06:48:33;96927.25;;;-1.29;100.00
55032;BME280;40928;51.076;7.950;2022-12-04T06:53:32;96925.63;;;-1.21;100.00
55032;BME280;40928;51.076;7.950;2022-12-04T06:56:00;96932.66;;;-1.14;100.00
55032;BME280;40928;51.076;7.950;2022-12-04T06:58:27;96925.44;;;-1.20;100.00
55032;BME280;40928;51.076;7.950;2022-12-04T07:00:53;96930.03;;;-1.22;100.00
55032;BME280;40928;51.076;7.950;2022-12-04T07:03:19;96923.31;;;-1.25;100.00
55032;BME280;40928;51.076;7.950;2022-12-04T07:05:45;96916.25;;;-1.24;100.00
55032;BME280;40928;51.076;7.950;2022-12-04T07:08:10;96921.50;;;-1.24;100.00
55032;BME280;40928;51.076;7.950;2022-12-04T07:10:36;96921.88;;;-1.27;100.00
55032;BME280;40928;51.076;7.950;2022-12-04T07:13:03;96922.50;;;-1.25;100.00
55032;BME280;40928;51.076;7.950;2022-12-04T07:15:29;96927.25;;;-1.20;100.00
55032;BME280;40928;51.076;7.950;2022-12-04T07:17:55;96920.84;;;-1.18;100.00
55032;BME280;40928;51.076;7.950;2022-12-04T07:20:20;96913.81;;;-1.17;100.00
55032;BME280;40928;51.076;7.950;2022-12-04T07:22:46;96920.53;;;-1.15;100.00
55032;BME280;40928;51.076;7.950;2022-12-04T07:25:11;96918.72;;;-1.14;100.00
55032;BME280;40928;51.076;7.950;2022-12-04T07:27:37;96926.25;;;-1.28;100.00
55032;BME280;40928;51.076;7.950;2022-12-04T07:30:04;96931.34;;;-1.34;100.00
55032;BME280;40928;51.076;7.950;2022-12-04T07:32:30;96933.31;;;-1.36;100.00
55032;BME280;40928;51.076;7.950;2022-12-04T07:34:56;96927.75;;;-1.33;100.00
55032;BME280;40928;51.076;7.950;2022-12-04T07:37:21;96925.97;;;-1.33;100.00
55032;BME280;40928;51.076;7.950;2022-12-04T07:39:50;96912.50;;;-1.30;100.00
55032;BME280;40928;51.076;7.950;2022-12-04T07:42:16;96914.66;;;-1.25;100.00
55032;BME280;40928;51.076;7.950;2022-12-04T07:44:41;96922.16;;;-1.22;100.00
55032;BME280;40928;51.076;7.950;2022-12-04T07:47:07;96916.13;;;-1.23;100.00
55032;BME280;40928;51.076;7.950;2022-12-04T07:49:33;96922.81;;;-1.20;100.00
55032;BME280;40928;51.076;7.950;2022-12-04T07:51:58;96925.44;;;-1.20;100.00
55032;BME280;40928;51.076;7.950;2022-12-04T07:54:24;96926.41;;;-1.21;100.00
55032;BME280;40928;51.076;7.950;2022-12-04T07:56:49;96929.53;;;-1.26;100.00
55032;BME280;40928;51.076;7.950;2022-12-04T07:59:15;96935.75;;;-1.27;100.00
55032;BME280;40928;51.076;7.950;2022-12-04T08:01:40;96934.59;;;-1.24;100.00
55032;BME280;40928;51.076;7.950;2022-12-04T08:04:06;96942.47;;;-1.24;100.00
55032;BME280;40928;51.076;7.950;2022-12-04T08:06:32;96937.72;;;-1.20;100.00
55032;BME280;40928;51.076;7.950;2022-12-04T08:08:59;96949.66;;;-1.18;100.00
55032;BME280;40928;51.076;7.950;2022-12-04T08:11:26;96940.84;;;-1.17;100.00
55032;BME280;40928;51.076;7.950;2022-12-04T08:13:56;96951.97;;;-1.15;100.00
55032;BME280;40928;51.076;7.950;2022-12-04T08:16:23;96950.00;;;-1.13;100.00
55032;BME280;40928;51.076;7.950;2022-12-04T08:18:50;96948.84;;;-1.10;100.00
55032;BME280;40928;51.076;7.950;2022-12-04T08:21:18;96945.25;;;-1.09;100.00
55032;BME280;40928;51.076;7.950;2022-12-04T08:23:46;96948.00;;;-1.02;100.00
55032;BME280;40928;51.076;7.950;2022-12-04T08:26:12;96948.66;;;-1.00;100.00
55032;BME280;40928;51.076;7.950;2022-12-04T08:28:39;96949.00;;;-1.03;100.00
55032;BME280;40928;51.076;7.950;2022-12-04T08:31:16;96946.03;;;-1.00;100.00
55032;BME280;40928;51.076;7.950;2022-12-04T08:33:43;96949.13;;;-0.97;100.00
55032;BME280;40928;51.076;7.950;2022-12-04T08:36:11;96948.34;;;-0.97;100.00
55032;BME280;40928;51.076;7.950;2022-12-04T08:38:38;96942.91;;;-0.96;100.00
55032;BME280;40928;51.076;7.950;2022-12-04T08:41:06;96940.81;;;-1.00;100.00
55032;BME280;40928;51.076;7.950;2022-12-04T08:43:33;96937.34;;;-1.01;100.00
55032;BME280;40928;51.076;7.950;2022-12-04T08:46:04;96936.72;;;-1.03;100.00
55032;BME280;40928;51.076;7.950;2022-12-04T08:48:30;96934.41;;;-0.98;100.00
55032;BME280;40928;51.076;7.950;2022-12-04T08:50:57;96928.66;;;-0.93;100.00
55032;BME280;40928;51.076;7.950;2022-12-04T08:53:23;96938.16;;;-0.92;100.00
55032;BME280;40928;51.076;7.950;2022-12-04T08:55:49;96930.59;;;-0.87;100.00
55032;BME280;40928;51.076;7.950;2022-12-04T08:58:15;96937.16;;;-0.83;100.00
55032;BME280;40928;51.076;7.950;2022-12-04T09:00:42;96925.69;;;-0.82;100.00
55032;BME280;40928;51.076;7.950;2022-12-04T09:03:11;96933.22;;;-0.79;100.00
55032;BME280;40928;51.076;7.950;2022-12-04T09:05:37;96919.75;;;-0.75;100.00
55032;BME280;40928;51.076;7.950;2022-12-04T09:08:03;96932.72;;;-0.74;100.00
55032;BME280;40928;51.076;7.950;2022-12-04T09:10:28;96936.97;;;-0.73;100.00
55032;BME280;40928;51.076;7.950;2022-12-04T09:12:54;96940.25;;;-0.71;100.00
55032;BME280;40928;51.076;7.950;2022-12-04T09:15:19;96944.66;;;-0.71;100.00
55032;BME280;40928;51.076;7.950;2022-12-04T09:17:45;96960.38;;;-0.71;100.00
55032;BME280;40928;51.076;7.950;2022-12-04T09:20:11;96955.31;;;-0.73;100.00
55032;BME280;40928;51.076;7.950;2022-12-04T09:22:36;96962.19;;;-0.72;100.00
55032;BME280;40928;51.076;7.950;2022-12-04T09:25:03;96966.47;;;-0.71;100.00
55032;BME280;40928;51.076;7.950;2022-12-04T09:27:30;96959.41;;;-0.70;100.00
55032;BME280;40928;51.076;7.950;2022-12-04T09:29:59;96954.63;;;-0.67;100.00
55032;BME280;40928;51.076;7.950;2022-12-04T09:32:25;96953.13;;;-0.61;100.00
55032;BME280;40928;51.076;7.950;2022-12-04T09:34:50;96953.97;;;-0.60;100.00
55032;BME280;40928;51.076;7.950;2022-12-04T09:37:16;96950.34;;;-0.59;100.00
55032;BME280;40928;51.076;7.950;2022-12-04T09:39:44;96953.31;;;-0.63;100.00
55032;BME280;40928;51.076;7.950;2022-12-04T09:42:46;96952.78;;;-0.58;100.00
55032;BME280;40928;51.076;7.950;2022-12-04T09:45:19;96955.28;;;-0.56;100.00
55032;BME280;40928;51.076;7.950;2022-12-04T09:47:49;96948.03;;;-0.54;100.00
55032;BME280;40928;51.076;7.950;2022-12-04T09:50:40;96949.16;;;-0.49;100.00
55032;BME280;40928;51.076;7.950;2022-12-04T09:55:49;96960.28;;;-0.38;100.00
55032;BME280;40928;51.076;7.950;2022-12-04T09:58:20;96952.06;;;-0.35;100.00
55032;BME280;40928;51.076;7.950;2022-12-04T10:00:49;96957.25;;;-0.27;100.00
55032;BME280;40928;51.076;7.950;2022-12-04T10:03:20;96944.13;;;-0.27;100.00
55032;BME280;40928;51.076;7.950;2022-12-04T10:06:10;96942.16;;;-0.25;100.00
55032;BME280;40928;51.076;7.950;2022-12-04T10:08:40;96944.59;;;-0.23;100.00
55032;BME280;40928;51.076;7.950;2022-12-04T10:24:51;96916.16;;;-0.11;100.00
55032;BME280;40928;51.076;7.950;2022-12-04T10:27:31;96915.63;;;-0.07;100.00
55032;BME280;40928;51.076;7.950;2022-12-04T10:30:22;96918.09;;;-0.05;100.00
55032;BME280;40928;51.076;7.950;2022-12-04T10:32:55;96911.88;;;-0.04;100.00
55032;BME280;40928;51.076;7.950;2022-12-04T10:35:24;96902.69;;;-0.08;100.00
55032;BME280;40928;51.076;7.950;2022-12-04T10:38:08;96904.16;;;-0.06;100.00
55032;BME280;40928;51.076;7.950;2022-12-04T10:40:43;96908.06;;;-0.02;100.00
55032;BME280;40928;51.076;7.950;2022-12-04T10:45:47;96900.03;;;0.00;100.00
55032;BME280;40928;51.076;7.950;2022-12-04T10:48:21;96900.53;;;-0.05;100.00
55032;BME280;40928;51.076;7.950;2022-12-04T10:50:48;96892.38;;;-0.10;100.00
55032;BME280;40928;51.076;7.950;2022-12-04T10:53:15;96893.84;;;-0.07;100.00
55032;BME280;40928;51.076;7.950;2022-12-04T10:55:41;96890.88;;;-0.04;100.00
55032;BME280;40928;51.076;7.950;2022-12-04T10:58:17;96888.69;;;-0.01;100.00
55032;BME280;40928;51.076;7.950;2022-12-04T11:00:55;96888.41;;;-0.06;100.00
55032;BME280;40928;51.076;7.950;2022-12-04T11:03:24;96897.03;;;0.03;100.00
55032;BME280;40928;51.076;7.950;2022-12-04T11:06:00;96889.00;;;0.05;100.00
55032;BME280;40928;51.076;7.950;2022-12-04T11:08:36;96886.84;;;0.08;100.00
55032;BME280;40928;51.076;7.950;2022-12-04T11:11:05;96890.91;;;0.11;100.00
55032;BME280;40928;51.076;7.950;2022-12-04T11:13:32;96883.53;;;0.14;100.00
55032;BME280;40928;51.076;7.950;2022-12-04T11:15:58;96876.09;;;0.18;100.00
55032;BME280;40928;51.076;7.950;2022-12-04T11:18:27;96877.91;;;0.18;100.00
55032;BME280;40928;51.076;7.950;2022-12-04T11:21:07;96885.63;;;0.19;100.00
55032;BME280;40928;51.076;7.950;2022-12-04T11:23:44;96885.88;;;0.24;100.00
55032;BME280;40928;51.076;7.950;2022-12-04T11:26:11;96881.47;;;0.25;100.00
55032;BME280;40928;51.076;7.950;2022-12-04T11:28:39;96883.09;;;0.26;100.00
55032;BME280;40928;51.076;7.950;2022-12-04T11:31:10;96879.94;;;0.30;100.00
55032;BME280;40928;51.076;7.950;2022-12-04T11:33:49;96871.88;;;0.32;100.00
55032;BME280;40928;51.076;7.950;2022-12-04T11:38:52;96862.38;;;0.31;100.00
55032;BME280;40928;51.076;7.950;2022-12-04T11:41:27;96862.84;;;0.35;100.00
55032;BME280;40928;51.076;7.950;2022-12-04T11:43:53;96860.38;;;0.33;100.00
55032;BME280;40928;51.076;7.950;2022-12-04T11:46:25;96858.38;;;0.35;100.00
55032;BME280;40928;51.076;7.950;2022-12-04T11:48:52;96851.59;;;0.26;100.00
55032;BME280;40928;51.076;7.950;2022-12-04T11:54:32;96859.84;;;0.38;100.00
55032;BME280;40928;51.076;7.950;2022-12-04T12:00:10;96861.00;;;0.35;100.00
55032;BME280;40928;51.076;7.950;2022-12-04T12:03:26;96854.75;;;0.36;100.00
55032;BME280;40928;51.076;7.950;2022-12-04T12:08:19;96857.69;;;0.41;100.00
55032;BME280;40928;51.076;7.950;2022-12-04T12:13:31;96843.22;;;0.45;100.00
55032;BME280;40928;51.076;7.950;2022-12-04T12:16:11;96828.69;;;0.50;100.00
55032;BME280;40928;51.076;7.950;2022-12-04T12:27:05;96814.22;;;0.54;100.00
55032;BME280;40928;51.076;7.950;2022-12-04T12:29:49;96816.66;;;0.55;100.00
55032;BME280;40928;51.076;7.950;2022-12-04T12:35:40;96800.06;;;0.55;100.00
55032;BME280;40928;51.076;7.950;2022-12-04T12:38:20;96792.84;;;0.57;100.00
55032;BME280;40928;51.076;7.950;2022-12-04T12:40:55;96793.28;;;0.60;100.00
55032;BME280;40928;51.076;7.950;2022-12-04T12:43:31;96788.03;;;0.60;100.00
55032;BME280;40928;51.076;7.950;2022-12-04T12:46:09;96788.03;;;0.60;100.00
55032;BME280;40928;51.076;7.950;2022-12-04T12:51:52;96781.97;;;0.60;100.00
55032;BME280;40928;51.076;7.950;2022-12-04T12:57:28;96777.97;;;0.64;100.00
55032;BME280;40928;51.076;7.950;2022-12-04T13:00:02;96778.59;;;0.66;100.00
55032;BME280;40928;51.076;7.950;2022-12-04T13:02:32;96788.94;;;0.68;100.00
55032;BME280;40928;51.076;7.950;2022-12-04T13:05:07;96798.28;;;0.70;100.00
55032;BME280;40928;51.076;7.950;2022-12-04T13:12:43;96796.84;;;0.68;100.00
55032;BME280;40928;51.076;7.950;2022-12-04T13:15:15;96797.28;;;0.71;100.00
55032;BME280;40928;51.076;7.950;2022-12-04T13:17:42;96818.59;;;0.77;100.00
55032;BME280;40928;51.076;7.950;2022-12-04T13:20:16;96819.38;;;0.77;100.00
55032;BME280;40928;51.076;7.950;2022-12-04T13:25:45;96820.66;;;0.81;100.00
55032;BME280;40928;51.076;7.950;2022-12-04T13:41:42;96830.44;;;0.72;100.00
55032;BME280;40928;51.076;7.950;2022-12-04T13:44:20;96835.50;;;0.74;100.00
55032;BME280;40928;51.076;7.950;2022-12-04T13:47:06;96836.97;;;0.77;100.00
55032;BME280;40928;51.076;7.950;2022-12-04T13:49:34;96837.16;;;0.75;100.00
55032;BME280;40928;51.076;7.950;2022-12-04T13:52:04;96832.09;;;0.73;100.00
55032;BME280;40928;51.076;7.950;2022-12-04T13:54:33;96836.69;;;0.71;100.00
55032;BME280;40928;51.076;7.950;2022-12-04T13:59:39;96827.81;;;0.72;100.00
55032;BME280;40928;51.076;7.950;2022-12-04T14:02:30;96819.75;;;0.74;100.00
55032;BME280;40928;51.076;7.950;2022-12-04T14:05:07;96823.00;;;0.76;100.00
55032;BME280;40928;51.076;7.950;2022-12-04T14:07:40;96817.59;;;0.78;100.00
55032;BME280;40928;51.076;7.950;2022-12-04T14:12:40;96818.03;;;0.81;100.00
55032;BME280;40928;51.076;7.950;2022-12-04T14:15:45;96807.31;;;0.83;100.00
55032;BME280;40928;51.076;7.950;2022-12-04T14:20:37;96811.59;;;0.84;100.00
55032;BME280;40928;51.076;7.950;2022-12-04T14:23:39;96801.06;;;0.84;100.00
55032;BME280;40928;51.076;7.950;2022-12-04T14:26:25;96794.38;;;0.81;100.00
55032;BME280;40928;51.076;7.950;2022-12-04T14:29:03;96806.16;;;0.85;100.00
55032;BME280;40928;51.076;7.950;2022-12-04T14:31:38;96797.81;;;0.82;100.00
55032;BME280;40928;51.076;7.950;2022-12-04T14:34:34;96800.44;;;0.82;100.00
55032;BME280;40928;51.076;7.950;2022-12-04T14:37:01;96798.81;;;0.81;100.00
55032;BME280;40928;51.076;7.950;2022-12-04T14:39:31;96799.09;;;0.86;100.00
55032;BME280;40928;51.076;7.950;2022-12-04T14:42:22;96804.69;;;0.83;100.00
55032;BME280;40928;51.076;7.950;2022-12-04T14:44:57;96790.75;;;0.82;100.00
55032;BME280;40928;51.076;7.950;2022-12-04T14:47:44;96793.53;;;0.81;100.00
55032;BME280;40928;51.076;7.950;2022-12-04T14:50:13;96785.84;;;0.79;100.00
55032;BME280;40928;51.076;7.950;2022-12-04T14:58:29;96789.91;;;0.82;100.00
55032;BME280;40928;51.076;7.950;2022-12-04T15:01:01;96793.38;;;0.82;100.00
55032;BME280;40928;51.076;7.950;2022-12-04T15:03:35;96787.13;;;0.83;100.00
55032;BME280;40928;51.076;7.950;2022-12-04T15:06:07;96784.66;;;0.82;100.00